createdAt,value
2022-10-18T00:00:33.515Z,99085.06
2022-10-18T00:03:37.337Z,99078.56
2022-10-18T00:06:43.422Z,99083.66
2022-10-18T00:09:46.446Z,99080.97
2022-10-18T00:12:50.684Z,99086.34
2022-10-18T00:15:56.239Z,99085.78
2022-10-18T00:18:59.166Z,99091.72
2022-10-18T00:22:02.792Z,99089.56
2022-10-18T00:25:07.455Z,99094.63
2022-10-18T00:28:11.522Z,99088.13
2022-10-18T00:31:16.304Z,99088.66
2022-10-18T00:34:19.093Z,99090.25
2022-10-18T00:37:21.819Z,99088.91
2022-10-18T00:40:24.685Z,99079.75
2022-10-18T00:43:28.809Z,99076.31
2022-10-18T00:46:34.735Z,99087.41
2022-10-18T00:49:40.911Z,99091.44
2022-10-18T00:52:47.042Z,99096.31
2022-10-18T00:55:50.359Z,99096.59
2022-10-18T00:58:55.297Z,99094.47
2022-10-18T01:01:58.334Z,99086.34
2022-10-18T01:05:01.037Z,99096.06
2022-10-18T01:08:36.347Z,99097.94
2022-10-18T01:12:10.133Z,99092.84
2022-10-18T01:15:24.404Z,99093.63
2022-10-18T01:18:33.348Z,99082.28
2022-10-18T01:21:44.051Z,99081.19
2022-10-18T01:25:07.259Z,99082.81
2022-10-18T01:28:25.353Z,99076.84
2022-10-18T01:31:34.030Z,99086.28
2022-10-18T01:34:39.795Z,99092.22
2022-10-18T01:37:46.279Z,99081.41
2022-10-18T01:40:52.172Z,99088.13
2022-10-18T01:43:59.032Z,99092.19
2022-10-18T01:47:06.154Z,99092.41
2022-10-18T01:50:09.690Z,99089.47
2022-10-18T01:53:30.913Z,99089.44
2022-10-18T01:56:40.657Z,99091.31
2022-10-18T01:59:53.010Z,99085.91
2022-10-18T02:03:02.763Z,99092.13
2022-10-18T02:06:11.353Z,99086.44
2022-10-18T02:09:20.337Z,99081.88
2022-10-18T02:12:24.389Z,99084.28
2022-10-18T02:15:31.032Z,99092.91
2022-10-18T02:18:41.150Z,99086.72
2022-10-18T02:21:46.806Z,99093.44
2022-10-18T02:24:54.278Z,99091.31
2022-10-18T02:27:57.679Z,99081.56
2022-10-18T02:31:07.522Z,99073.22
2022-10-18T02:34:18.456Z,99073.75
2022-10-18T02:37:21.970Z,99070.22
2022-10-18T02:40:27.407Z,99060.78
2022-10-18T02:43:30.134Z,99061.63
2022-10-18T02:46:34.892Z,99069.41
2022-10-18T02:49:39.706Z,99067.81
2022-10-18T02:52:42.683Z,99067.53
2022-10-18T02:55:45.427Z,99067.00
2022-10-18T02:58:48.102Z,99061.84
2022-10-18T03:01:51.219Z,99058.56
2022-10-18T03:04:55.623Z,99057.75
2022-10-18T03:07:59.195Z,99058.50
2022-10-18T03:11:02.471Z,99066.59
2022-10-18T03:14:05.135Z,99051.94
2022-10-18T03:17:08.225Z,99061.09
2022-10-18T03:20:14.025Z,99056.47
2022-10-18T03:23:16.730Z,99059.19
2022-10-18T03:26:21.453Z,99052.66
2022-10-18T03:29:24.318Z,99049.69
2022-10-18T03:32:27.113Z,99051.59
2022-10-18T03:35:31.243Z,99051.34
2022-10-18T03:38:34.018Z,99050.81
2022-10-18T03:41:36.890Z,99048.09
2022-10-18T03:44:39.649Z,99045.16
2022-10-18T03:47:42.711Z,99041.66
2022-10-18T03:50:47.206Z,99030.66
2022-10-18T03:53:50.214Z,99040.94
2022-10-18T03:56:52.937Z,99040.16
2022-10-18T03:59:55.879Z,99050.44
2022-10-18T04:02:58.906Z,99051.53
2022-10-18T04:06:03.689Z,99044.00
2022-10-18T04:09:09.476Z,99045.91
2022-10-18T04:12:13.354Z,99048.56
2022-10-18T04:15:17.069Z,99050.72
2022-10-18T04:18:20.171Z,99055.56
2022-10-18T04:21:24.248Z,99060.38
2022-10-18T04:24:27.078Z,99060.44
2022-10-18T04:27:30.378Z,99056.91
2022-10-18T04:30:33.585Z,99051.25
2022-10-18T04:33:36.503Z,99057.75
2022-10-18T04:36:41.465Z,99065.28
2022-10-18T04:39:49.921Z,99064.72
2022-10-18T04:42:55.982Z,99069.03
2022-10-18T04:45:59.201Z,99071.72
2022-10-18T04:49:03.061Z,99072.78
2022-10-18T04:52:07.880Z,99068.47
2022-10-18T04:55:11.265Z,99070.38
2022-10-18T04:58:14.202Z,99067.66
2022-10-18T05:01:18.890Z,99074.16
2022-10-18T05:04:21.676Z,99071.19
2022-10-18T05:07:25.686Z,99082.28
2022-10-18T05:10:28.322Z,99076.09
2022-10-18T05:13:31.398Z,99080.69
2022-10-18T05:16:34.255Z,99084.69
2022-10-18T05:19:36.902Z,99070.66
2022-10-18T05:22:41.021Z,99076.88
2022-10-18T05:25:44.264Z,99073.88
2022-10-18T05:28:46.909Z,99067.38
2022-10-18T05:31:49.736Z,99067.13
2022-10-18T05:34:52.401Z,99062.47
2022-10-18T05:37:56.408Z,99075.72
2022-10-18T05:40:59.388Z,99062.44
2022-10-18T05:44:04.614Z,99073.72
2022-10-18T05:47:07.211Z,99068.25
2022-10-18T05:50:10.713Z,99073.28
2022-10-18T05:53:35.157Z,99072.63
2022-10-18T05:59:45.286Z,99071.41
2022-10-18T06:02:47.909Z,99070.66
2022-10-18T06:05:50.958Z,99070.44
2022-10-18T06:08:54.972Z,99076.91
2022-10-18T06:11:57.880Z,99072.03
2022-10-18T06:15:00.512Z,99079.75
2022-10-18T06:18:03.162Z,99079.75
2022-10-18T06:21:06.424Z,99078.78
2022-10-18T06:24:10.962Z,99080.66
2022-10-18T06:27:13.844Z,99076.78
2022-10-18T06:30:16.623Z,99079.34
2022-10-18T06:33:19.247Z,99084.59
2022-10-18T06:36:22.990Z,99084.16
2022-10-18T06:39:27.342Z,99081.75
2022-10-18T06:42:30.190Z,99085.78
2022-10-18T06:45:33.755Z,99092.41
2022-10-18T06:48:37.725Z,99097.94
2022-10-18T06:51:40.357Z,99093.69
2022-10-18T06:54:45.531Z,99094.97
2022-10-18T06:57:48.322Z,99093.81
2022-10-18T07:00:50.953Z,99101.03
2022-10-18T07:03:54.604Z,99103.00
2022-10-18T07:06:57.481Z,99096.53
2022-10-18T07:10:01.500Z,99091.47
2022-10-18T07:13:27.376Z,99110.25
2022-10-18T07:16:26.786Z,99110.56
2022-10-18T07:19:29.489Z,99108.13
2022-10-18T07:22:33.977Z,99119.47
2022-10-18T07:25:37.971Z,99117.78
2022-10-18T07:28:40.758Z,99120.75
2022-10-18T07:31:43.402Z,99119.31
2022-10-18T07:34:46.077Z,99119.25
2022-10-18T07:37:48.702Z,99115.69
2022-10-18T07:40:58.130Z,99121.31
2022-10-18T07:44:01.705Z,99118.03
2022-10-18T07:47:04.330Z,99110.91
2022-10-18T07:50:08.039Z,99115.94
2022-10-18T07:53:10.659Z,99120.69
2022-10-18T07:56:16.823Z,99121.91
2022-10-18T07:59:19.609Z,99116.94
2022-10-18T08:02:22.272Z,99119.03
2022-10-18T08:05:25.585Z,99121.97
2022-10-18T08:08:28.682Z,99129.41
2022-10-18T08:11:32.713Z,99135.28
2022-10-18T08:14:35.382Z,99136.88
2022-10-18T08:17:38.018Z,99130.38
2022-10-18T08:20:44.217Z,99139.28
2022-10-18T08:23:46.969Z,99147.16
2022-10-18T08:26:51.440Z,99146.25
2022-10-18T08:29:54.471Z,99151.59
2022-10-18T08:32:57.188Z,99152.81
2022-10-18T08:36:01.791Z,99153.53
2022-10-18T08:39:04.774Z,99156.09
2022-10-18T08:42:22.039Z,99145.41
2022-10-18T08:45:40.978Z,99144.28
2022-10-18T08:48:49.325Z,99144.72
2022-10-18T08:51:52.772Z,99148.03
2022-10-18T08:55:02.482Z,99153.66
2022-10-18T08:58:17.104Z,99161.38
2022-10-18T09:01:29.667Z,99163.97
2022-10-18T09:04:45.958Z,99152.78
2022-10-18T09:08:12.665Z,99160.47
2022-10-18T09:11:30.611Z,99155.53
2022-10-18T09:15:01.286Z,99174.91
2022-10-18T09:18:18.986Z,99175.09
2022-10-18T09:21:25.834Z,99177.31
2022-10-18T09:24:38.676Z,99171.59
2022-10-18T09:27:51.001Z,99176.50
2022-10-18T09:31:02.482Z,99174.53
2022-10-18T09:34:10.182Z,99175.81
2022-10-18T09:37:15.464Z,99174.22
2022-10-18T09:40:22.864Z,99181.44
2022-10-18T09:43:39.942Z,99171.91
2022-10-18T09:46:55.576Z,99178.66
2022-10-18T09:50:07.249Z,99173.53
2022-10-18T09:53:35.229Z,99175.03
2022-10-18T10:00:18.815Z,99182.09
2022-10-18T10:03:31.946Z,99175.59
2022-10-18T10:06:54.072Z,99176.75
2022-10-18T10:10:16.801Z,99179.06
2022-10-18T10:13:39.048Z,99177.34
2022-10-18T10:16:55.761Z,99176.09
2022-10-18T10:20:11.354Z,99178.69
2022-10-18T10:23:26.525Z,99184.47
2022-10-18T10:26:43.111Z,99184.28
2022-10-18T10:30:07.662Z,99183.16
2022-10-18T10:33:36.933Z,99180.75
2022-10-18T10:40:28.921Z,99172.09
2022-10-18T10:43:42.656Z,99171.13
2022-10-18T10:47:02.279Z,99171.59
2022-10-18T10:50:18.414Z,99172.38
2022-10-18T10:53:52.614Z,99169.19
2022-10-18T10:57:04.478Z,99170.13
2022-10-18T11:00:36.374Z,99173.22
2022-10-18T11:03:51.428Z,99177.56
2022-10-18T11:07:07.075Z,99169.06
2022-10-18T11:10:21.596Z,99168.09
2022-10-18T11:13:43.460Z,99163.59
2022-10-18T11:17:08.164Z,99159.44
2022-10-18T11:20:42.722Z,99151.72
2022-10-18T11:24:03.239Z,99150.25
2022-10-18T11:27:25.045Z,99148.78
2022-10-18T11:30:59.878Z,99147.13
2022-10-18T11:34:22.541Z,99144.88
2022-10-18T11:37:56.856Z,99140.84
2022-10-18T11:41:25.284Z,99155.53
2022-10-18T11:45:06.201Z,99146.56
2022-10-18T11:56:13.309Z,99151.41
2022-10-18T11:59:43.789Z,99160.38
2022-10-18T12:03:20.462Z,99146.88
2022-10-18T12:06:36.051Z,99148.69
2022-10-18T12:13:05.118Z,99136.41
2022-10-18T12:16:45.591Z,99134.69
2022-10-18T12:20:02.039Z,99140.69
2022-10-18T12:23:13.318Z,99134.41
2022-10-18T12:26:27.575Z,99138.03
2022-10-18T12:29:57.104Z,99136.38
2022-10-18T12:33:27.302Z,99139.34
2022-10-18T12:40:23.905Z,99137.50
2022-10-18T12:43:35.373Z,99131.94
2022-10-18T12:47:00.863Z,99138.44
2022-10-18T12:50:31.379Z,99137.97
2022-10-18T12:53:43.907Z,99124.63
2022-10-18T12:56:58.598Z,99125.75
2022-10-18T13:00:33.900Z,99133.94
2022-10-18T13:04:14.400Z,99131.50
2022-10-18T13:07:49.769Z,99134.09
2022-10-18T13:11:33.324Z,99131.53
2022-10-18T13:15:24.758Z,99137.31
2022-10-18T13:18:46.686Z,99130.59
2022-10-18T13:22:09.810Z,99134.44
2022-10-18T13:25:38.973Z,99129.91
2022-10-18T13:29:13.741Z,99135.50
2022-10-18T13:32:37.099Z,99127.97
2022-10-18T13:36:02.066Z,99130.25
2022-10-18T13:39:29.355Z,99132.41
2022-10-18T13:42:40.549Z,99129.91
2022-10-18T13:54:02.232Z,99137.56
2022-10-18T13:57:24.384Z,99137.69
2022-10-18T14:00:52.491Z,99139.19
2022-10-18T14:04:33.359Z,99138.84
2022-10-18T14:07:45.243Z,99139.47
2022-10-18T14:11:10.681Z,99145.44
2022-10-18T14:14:31.183Z,99141.75
2022-10-18T14:17:47.178Z,99145.94
2022-10-18T14:21:14.039Z,99142.69
2022-10-18T14:24:28.873Z,99150.00
2022-10-18T14:27:44.790Z,99158.50
2022-10-18T14:31:25.486Z,99152.84
2022-10-18T14:34:48.673Z,99153.44
2022-10-18T14:38:06.267Z,99155.34
2022-10-18T14:41:28.808Z,99158.19
2022-10-18T14:44:54.406Z,99154.50
2022-10-18T14:48:27.731Z,99153.69
2022-10-18T14:51:43.868Z,99150.31
2022-10-18T14:55:03.512Z,99147.75
2022-10-18T14:58:19.726Z,99145.53
2022-10-18T15:01:42.494Z,99152.72
2022-10-18T15:05:02.360Z,99154.78
2022-10-18T15:08:12.889Z,99161.69
2022-10-18T15:11:31.304Z,99157.84
2022-10-18T15:14:46.219Z,99160.22
2022-10-18T15:17:55.620Z,99157.13
2022-10-18T15:21:33.648Z,99155.75
2022-10-18T15:24:51.632Z,99157.94
2022-10-18T15:28:03.788Z,99156.16
2022-10-18T15:31:31.918Z,99154.03
2022-10-18T15:34:39.160Z,99148.88
2022-10-18T15:37:56.541Z,99153.31
2022-10-18T15:41:10.714Z,99147.38
2022-10-18T15:44:27.273Z,99146.50
2022-10-18T15:47:41.832Z,99147.44
2022-10-18T15:50:55.126Z,99142.41
2022-10-18T15:54:11.980Z,99148.50
2022-10-18T15:57:24.022Z,99142.72
2022-10-18T16:00:38.438Z,99145.13
2022-10-18T16:04:00.250Z,99147.84
2022-10-18T16:07:23.458Z,99148.78
2022-10-18T16:10:34.462Z,99159.91
2022-10-18T16:14:00.559Z,99158.41
2022-10-18T16:17:29.543Z,99153.09
2022-10-18T16:24:34.484Z,99158.75
2022-10-18T16:27:57.935Z,99163.28
2022-10-18T16:31:17.102Z,99165.31
2022-10-18T16:34:35.297Z,99157.66
2022-10-18T16:37:50.872Z,99165.44
2022-10-18T16:41:04.034Z,99173.38
2022-10-18T16:44:18.534Z,99182.94
2022-10-18T16:47:28.611Z,99184.16
2022-10-18T16:50:44.034Z,99183.78
2022-10-18T16:57:35.772Z,99198.75
2022-10-18T17:00:54.575Z,99201.38
2022-10-18T17:04:17.657Z,99210.72
2022-10-18T17:07:29.507Z,99210.09
2022-10-18T17:10:50.838Z,99207.22
2022-10-18T17:14:12.108Z,99199.50
2022-10-18T17:17:26.911Z,99206.63
2022-10-18T17:20:46.220Z,99205.66
2022-10-18T17:23:55.133Z,99208.78
2022-10-18T17:30:46.166Z,99216.94
2022-10-18T17:34:05.599Z,99216.03
2022-10-18T17:37:29.728Z,99222.63
2022-10-18T17:48:49.222Z,99224.50
2022-10-18T17:52:34.095Z,99231.16
2022-10-18T17:56:28.996Z,99229.38
2022-10-18T17:59:47.502Z,99241.38
2022-10-18T18:02:59.084Z,99243.66
2022-10-18T18:06:19.096Z,99241.28
2022-10-18T18:09:28.498Z,99241.88
2022-10-18T18:12:35.514Z,99247.34
2022-10-18T18:15:48.379Z,99244.38
2022-10-18T18:18:58.368Z,99242.72
2022-10-18T18:22:09.906Z,99246.53
2022-10-18T18:25:18.240Z,99244.88
2022-10-18T18:28:23.313Z,99244.28
2022-10-18T18:31:34.394Z,99250.50
2022-10-18T18:34:49.313Z,99239.44
2022-10-18T18:37:59.301Z,99240.81
2022-10-18T18:41:15.284Z,99228.19
2022-10-18T18:44:22.676Z,99225.03
2022-10-18T18:47:31.684Z,99226.19
2022-10-18T18:50:52.391Z,99234.13
2022-10-18T18:53:59.587Z,99239.91
2022-10-18T18:57:06.996Z,99232.41
2022-10-18T19:00:22.024Z,99231.31
2022-10-18T19:03:32.142Z,99231.09
2022-10-18T19:06:50.300Z,99243.28
2022-10-18T19:10:03.928Z,99236.00
2022-10-18T19:13:12.198Z,99233.34
2022-10-18T19:16:25.190Z,99229.88
2022-10-18T19:19:34.832Z,99230.22
2022-10-18T19:22:42.214Z,99222.66
2022-10-18T19:25:48.991Z,99230.53
2022-10-18T19:28:59.998Z,99221.09
2022-10-18T19:32:08.158Z,99217.63
2022-10-18T19:35:24.887Z,99221.97
2022-10-18T19:38:33.010Z,99218.75
2022-10-18T19:41:39.193Z,99222.53
2022-10-18T19:44:49.662Z,99225.28
2022-10-18T19:47:56.559Z,99222.34
2022-10-18T19:51:09.515Z,99219.38
2022-10-18T19:54:20.032Z,99222.38
2022-10-18T19:57:28.365Z,99225.34
2022-10-18T20:00:47.386Z,99223.78
2022-10-18T20:03:53.973Z,99222.97
2022-10-18T20:07:03.231Z,99227.06
2022-10-18T20:10:10.077Z,99226.00
2022-10-18T20:13:16.265Z,99220.88
2022-10-18T20:16:41.453Z,99233.88
2022-10-18T20:32:25.088Z,99230.47
2022-10-18T20:35:35.829Z,99229.38
2022-10-18T20:38:47.923Z,99237.47
2022-10-18T20:41:57.671Z,99236.97
2022-10-18T20:45:08.182Z,99231.00
2022-10-18T20:48:30.488Z,99224.00
2022-10-18T20:51:49.966Z,99221.59
2022-10-18T20:54:58.682Z,99219.47
2022-10-18T20:58:04.386Z,99215.13
2022-10-18T21:01:12.900Z,99210.56
2022-10-18T21:04:38.843Z,99212.72
2022-10-18T21:08:10.224Z,99205.69
2022-10-18T21:11:18.060Z,99206.56
2022-10-18T21:14:27.219Z,99215.25
2022-10-18T21:17:38.680Z,99218.50
2022-10-18T21:20:49.289Z,99209.84
2022-10-18T21:24:05.366Z,99208.97
2022-10-18T21:27:19.331Z,99203.88
2022-10-18T21:30:34.225Z,99208.47
2022-10-18T21:33:46.307Z,99207.13
2022-10-18T21:36:56.379Z,99209.31
2022-10-18T21:40:06.155Z,99210.13
2022-10-18T21:43:11.270Z,99212.00
2022-10-18T21:46:15.307Z,99201.81
2022-10-18T21:49:19.330Z,99211.00
2022-10-18T21:52:23.293Z,99194.25
2022-10-18T21:55:26.033Z,99197.00
2022-10-18T21:58:30.097Z,99191.34
2022-10-18T22:01:34.510Z,99192.44
2022-10-18T22:04:37.222Z,99191.38
2022-10-18T22:07:41.185Z,99192.72
2022-10-18T22:10:43.866Z,99189.22
2022-10-18T22:14:01.373Z,99181.69
2022-10-18T22:17:04.012Z,99180.91
2022-10-18T22:20:07.826Z,99189.25
2022-10-18T22:23:12.892Z,99183.31
2022-10-18T22:26:17.880Z,99190.88
2022-10-18T22:29:22.368Z,99184.94
2022-10-18T22:32:25.297Z,99177.91
2022-10-18T22:35:27.922Z,99188.19
2022-10-18T22:38:35.185Z,99186.53
2022-10-18T22:41:37.893Z,99183.88
2022-10-18T22:44:40.589Z,99182.78
2022-10-18T22:47:43.194Z,99180.06
2022-10-18T22:50:45.842Z,99182.50
2022-10-18T22:53:49.908Z,99169.81
2022-10-18T22:56:52.560Z,99169.00
2022-10-18T22:59:55.174Z,99176.84
2022-10-18T23:02:57.759Z,99160.66
2022-10-18T23:06:00.989Z,99162.03
2022-10-18T23:09:07.386Z,99158.50
2022-10-18T23:12:09.979Z,99155.25
2022-10-18T23:15:12.721Z,99157.41
2022-10-18T23:18:15.369Z,99166.03
2022-10-18T23:21:17.989Z,99165.22
2022-10-18T23:24:22.014Z,99157.66
2022-10-18T23:27:24.617Z,99155.78
2022-10-18T23:30:27.265Z,99151.22
2022-10-18T23:33:30.294Z,99151.50
2022-10-18T23:36:33.802Z,99157.41
2022-10-18T23:39:38.224Z,99152.84
2022-10-18T23:42:40.841Z,99153.13
2022-10-18T23:45:43.537Z,99151.75
2022-10-18T23:48:46.672Z,99156.88
2022-10-18T23:51:49.297Z,99153.94
2022-10-18T23:54:53.282Z,99158.53
2022-10-18T23:57:55.893Z,99167.44
